Home PIREPS Pireps

Flight BEL3706

  • Submitted By: Vincent Fourni
  • Departure Airport: barcelona airport (LEBL)
  • Arrival Airport: Bruxelles National (EBBR)
  • Aircraft: A320-214 (OO-SNA)
  • Flight Time: 02.33
  • Date Submitted: 28/01/2018
  • Status: Accepted
Flight Details
Gross Revenue:
(132 load / € 146.00 per unit
€ 19,272.00
Fuel Cost:
(5625 fuel used @ 5.1 / unit)
€ 28,687.50

Additional Log Information:

View Log

Aircraft Used in flight is PMDG 737-800NGX Brussels Airlines Winglets
14:57 Brakes are On
14:57 Brakes are Released
14:59 Brakes are On
14:59 Brakes are Released
15:01 Brakes are On
15:04 Brakes are Released
15:12 You Took off @ 165 Knots and Flaps at Position 3
Departure Weather
LEBL 281400Z 08008KT 030V110 9999 FEW020 15/09 Q1036 NOSIGrn
15:12 Landing Gear Up @ 176 Knots and 190 Feet
15:16 Above FL100 you need to switch of the landing lights
16:51 Above FL100 you need to switch of the landing lights
17:00 Landing Gear Down @ 194 Knots and 2950 Feet
17:05 You Landed @ 127 Knots and with -400 Vertical Speed
Arrival Weather
EBBR 281550Z 24014KT 9999 FEW009 BKN010 10/08 Q1031 NOSIGrn
17:05 Paused
17:10 Unpaused
17:10 Paused
17:12 Unpaused
17:12 Brakes are On
17:38 Brussels Bel-Track1.0.1.2

Route Map

Corporate About Us Our Team Vacancies Information Fleet Route Network Rules and Regulations Operations Flight Schedules Event Center Tours Partners IVAO Vatsim Acars dev FSCB

fb Users Online Belgium Bennie Peeters, South Africa Marc Toussaint,
2 Pilot(s) and 155 Guest(s) Online
CMS by phpVMS - Design by Crazycreatives.com - Copyright © 2020 - Brussels Airlines Virtual